Terminal Aerodrome Forecast
Issued by NWS

Home | Current Version | Previous Version | Text Only | Print | Product List | Glossary On
Versions: 1 2 3 4 5 6 7 8 9 10 11 12 13 14 15 16 17 18 19 20 21 22 23 24 25 26 27
000
FTUS45 KGJT 190138 AAA
TAFDRO
TAF AMD
KDRO 190138Z 1902/1924 08004KT P6SM BKN200
     FM190600 21011KT P6SM VCSH SCT030 BKN090
     FM191100 21012KT P6SM -SHRASN BKN015 OVC040
     FM191800 22016G25KT P6SM -SHRA BKN020 OVC040=

USA.gov is the U.S. government's official web portal to all federal, state and local government web resources and services.